createdAt,value
2022-09-23T00:01:11.494Z,6.80
2022-09-23T00:03:41.924Z,6.40
2022-09-23T00:06:11.064Z,6.95
2022-09-23T00:08:37.986Z,6.78
2022-09-23T00:11:25.427Z,6.80
2022-09-23T00:13:58.097Z,6.38
2022-09-23T00:16:33.438Z,6.82
2022-09-23T00:19:01.448Z,7.65
2022-09-23T00:21:28.469Z,7.03
2022-09-23T00:23:55.306Z,7.15
2022-09-23T00:26:23.112Z,7.53
2022-09-23T00:28:50.553Z,7.20
2022-09-23T00:31:20.777Z,7.50
2022-09-23T00:33:47.733Z,7.32
2022-09-23T00:36:16.040Z,7.15
2022-09-23T00:38:46.038Z,7.15
2022-09-23T00:41:14.997Z,7.13
2022-09-23T00:43:53.559Z,7.43
2022-09-23T00:46:43.585Z,7.55
2022-09-23T00:49:30.848Z,6.82
2022-09-23T00:52:10.621Z,7.10
2022-09-23T00:54:38.116Z,7.22
2022-09-23T00:57:05.758Z,7.18
2022-09-23T00:59:32.627Z,6.68
2022-09-23T01:02:01.795Z,6.07
2022-09-23T01:04:29.828Z,6.93
2022-09-23T01:06:56.347Z,7.05
2022-09-23T01:09:24.224Z,6.88
2022-09-23T01:12:24.251Z,7.30
2022-09-23T01:15:18.587Z,7.20
2022-09-23T01:18:13.439Z,6.25
2022-09-23T01:20:59.884Z,7.13
2022-09-23T01:23:44.711Z,7.47
2022-09-23T01:26:39.033Z,6.57
2022-09-23T01:29:08.542Z,7.03
2022-09-23T01:31:43.140Z,7.45
2022-09-23T01:34:24.228Z,8.02
2022-09-23T01:37:17.638Z,7.25
2022-09-23T01:39:53.328Z,7.85
2022-09-23T01:42:43.072Z,7.85
2022-09-23T01:45:35.737Z,7.63
2022-09-23T01:48:20.626Z,7.07
2022-09-23T01:50:56.252Z,7.35
2022-09-23T01:53:36.718Z,7.15
2022-09-23T01:56:10.179Z,6.85
2022-09-23T01:58:53.899Z,6.75
2022-09-23T02:01:28.303Z,6.28
2022-09-23T02:04:18.911Z,6.80
2022-09-23T02:06:51.591Z,6.45
2022-09-23T02:09:26.736Z,7.05
2022-09-23T02:12:00.481Z,7.85
2022-09-23T02:14:32.173Z,8.00
2022-09-23T02:17:03.442Z,7.53
2022-09-23T02:19:50.601Z,7.50
2022-09-23T02:22:50.116Z,8.20
2022-09-23T02:25:17.421Z,7.20
2022-09-23T02:27:55.369Z,9.05
2022-09-23T02:30:27.187Z,7.72
2022-09-23T02:33:06.093Z,7.30
2022-09-23T02:35:48.928Z,9.30
2022-09-23T02:38:51.172Z,7.00
2022-09-23T02:41:37.835Z,8.52
2022-09-23T02:44:09.080Z,7.60
2022-09-23T02:46:37.018Z,7.35
2022-09-23T02:49:25.399Z,7.35
2022-09-23T02:51:52.172Z,7.80
2022-09-23T02:54:22.030Z,8.02
2022-09-23T02:56:51.469Z,7.50
2022-09-23T02:59:20.302Z,8.13
2022-09-23T03:02:14.192Z,7.55
2022-09-23T03:04:43.445Z,7.53
2022-09-23T03:07:29.518Z,8.48
2022-09-23T03:10:09.716Z,7.10
2022-09-23T03:12:41.404Z,6.97
2022-09-23T03:15:30.122Z,6.97
2022-09-23T03:18:35.060Z,7.65
2022-09-23T03:21:07.774Z,7.63
2022-09-23T03:23:37.100Z,7.88
2022-09-23T03:26:18.631Z,7.43
2022-09-23T03:28:45.964Z,8.10
2022-09-23T03:31:14.281Z,7.70
2022-09-23T03:33:46.889Z,7.78
2022-09-23T03:36:35.084Z,7.68
2022-09-23T03:39:08.823Z,8.02
2022-09-23T03:41:50.750Z,8.10
2022-09-23T03:44:19.489Z,8.07
2022-09-23T03:46:49.773Z,7.15
2022-09-23T03:49:27.266Z,7.32
2022-09-23T03:51:55.394Z,6.55
2022-09-23T03:54:22.241Z,7.18
2022-09-23T03:56:49.155Z,7.70
2022-09-23T03:59:16.452Z,8.43
2022-09-23T04:01:43.691Z,7.40
2022-09-23T04:04:10.692Z,7.93
2022-09-23T04:06:37.213Z,6.65
2022-09-23T04:09:03.876Z,7.95
2022-09-23T04:11:30.490Z,8.18
2022-09-23T04:13:57.013Z,7.93
2022-09-23T04:16:24.081Z,7.63
2022-09-23T04:18:51.002Z,7.95
2022-09-23T04:21:17.560Z,7.03
2022-09-23T04:23:44.112Z,7.13
2022-09-23T04:26:10.750Z,6.80
2022-09-23T04:28:37.236Z,8.35
2022-09-23T04:31:09.539Z,8.15
2022-09-23T04:33:36.363Z,7.82
2022-09-23T04:36:02.874Z,7.13
2022-09-23T04:38:29.420Z,7.85
2022-09-23T04:40:55.952Z,7.78
2022-09-23T04:43:23.424Z,8.02
2022-09-23T04:46:04.864Z,7.43
2022-09-23T04:48:32.248Z,7.60
2022-09-23T04:51:10.587Z,8.00
2022-09-23T04:53:38.546Z,7.20
2022-09-23T04:56:11.646Z,7.70
2022-09-23T04:58:39.123Z,8.30
2022-09-23T05:01:09.572Z,6.85
2022-09-23T05:03:36.272Z,8.63
2022-09-23T05:06:02.879Z,7.93
2022-09-23T05:08:29.809Z,9.13
2022-09-23T05:11:01.373Z,8.40
2022-09-23T05:13:28.172Z,7.50
2022-09-23T05:16:02.551Z,8.35
2022-09-23T05:18:33.407Z,9.10
2022-09-23T05:21:00.315Z,7.97
2022-09-23T05:23:27.852Z,7.70
2022-09-23T05:26:06.624Z,6.88
2022-09-23T05:28:34.279Z,7.65
2022-09-23T05:31:05.982Z,8.05
2022-09-23T05:33:34.178Z,7.55
2022-09-23T05:36:01.457Z,7.28
2022-09-23T05:38:31.939Z,7.10
2022-09-23T05:41:00.653Z,7.97
2022-09-23T05:43:27.929Z,7.80
2022-09-23T05:46:08.364Z,8.15
2022-09-23T05:48:36.181Z,8.40
2022-09-23T05:51:03.780Z,7.25
2022-09-23T05:53:30.906Z,7.80
2022-09-23T05:55:57.890Z,8.00
2022-09-23T05:58:25.184Z,7.63
2022-09-23T06:00:52.060Z,8.13
2022-09-23T06:03:21.165Z,8.10
2022-09-23T06:05:48.453Z,7.40
2022-09-23T06:08:15.290Z,8.60
2022-09-23T06:10:43.650Z,7.32
2022-09-23T06:13:10.633Z,7.47
2022-09-23T06:15:37.716Z,7.78
2022-09-23T06:18:05.453Z,8.38
2022-09-23T06:20:33.517Z,7.82
2022-09-23T06:23:08.973Z,8.10
2022-09-23T06:25:38.458Z,7.70
2022-09-23T06:28:06.866Z,7.97
2022-09-23T06:30:34.773Z,7.68
2022-09-23T06:33:02.013Z,7.97
2022-09-23T06:35:28.905Z,7.97
2022-09-23T06:37:55.635Z,7.78
2022-09-23T06:40:22.617Z,8.30
2022-09-23T06:42:56.748Z,9.32
2022-09-23T06:45:23.538Z,7.50
2022-09-23T06:47:56.349Z,7.20
2022-09-23T06:50:26.606Z,7.55
2022-09-23T06:52:56.205Z,8.00
2022-09-23T06:55:24.446Z,7.78
2022-09-23T06:57:51.219Z,6.97
2022-09-23T07:00:18.422Z,8.30
2022-09-23T07:02:45.498Z,7.53
2022-09-23T07:05:12.642Z,6.45
2022-09-23T07:07:39.404Z,7.93
2022-09-23T07:10:07.235Z,6.65
2022-09-23T07:12:34.206Z,6.95
2022-09-23T07:15:00.734Z,6.30
2022-09-23T07:17:27.671Z,6.40
2022-09-23T07:19:55.049Z,7.60
2022-09-23T07:22:22.531Z,6.45
2022-09-23T07:24:49.005Z,5.93
2022-09-23T07:27:19.865Z,7.05
2022-09-23T07:29:49.720Z,7.40
2022-09-23T07:32:16.891Z,6.38
2022-09-23T07:34:44.365Z,8.25
2022-09-23T07:37:10.811Z,6.82
2022-09-23T07:39:37.447Z,7.25
2022-09-23T07:42:05.233Z,6.60
2022-09-23T07:44:32.355Z,6.70
2022-09-23T07:46:59.671Z,7.05
2022-09-23T07:49:27.484Z,6.50
2022-09-23T07:51:54.420Z,6.63
2022-09-23T07:54:21.484Z,6.55
2022-09-23T07:56:48.211Z,7.10
2022-09-23T07:59:18.131Z,6.57
2022-09-23T08:01:48.337Z,6.63
2022-09-23T08:04:21.157Z,7.30
2022-09-23T08:06:50.418Z,6.05
2022-09-23T08:09:18.922Z,7.00
2022-09-23T08:11:45.441Z,5.97
2022-09-23T08:14:13.850Z,5.88
2022-09-23T08:16:41.725Z,6.60
2022-09-23T08:19:08.939Z,6.32
2022-09-23T08:21:35.629Z,6.22
2022-09-23T08:24:02.400Z,6.43
2022-09-23T08:26:29.133Z,4.88
2022-09-23T08:28:56.464Z,6.15
2022-09-23T08:31:23.617Z,6.15
2022-09-23T08:33:57.594Z,6.28
2022-09-23T08:36:25.389Z,6.45
2022-09-23T08:38:51.943Z,5.88
2022-09-23T08:41:30.280Z,5.78
2022-09-23T08:44:02.161Z,5.18
2022-09-23T08:46:34.779Z,6.15
2022-09-23T08:49:02.109Z,5.07
2022-09-23T08:51:35.588Z,6.20
2022-09-23T08:54:02.344Z,5.40
2022-09-23T08:56:30.302Z,6.10
2022-09-23T08:59:00.133Z,5.80
2022-09-23T09:01:29.618Z,6.53
2022-09-23T09:04:01.488Z,5.88
2022-09-23T09:06:53.082Z,6.65
2022-09-23T09:09:33.823Z,5.38
2022-09-23T09:12:14.153Z,6.25
2022-09-23T09:14:57.668Z,5.70
2022-09-23T09:17:36.325Z,5.15
2022-09-23T09:20:14.921Z,6.00
2022-09-23T09:22:52.650Z,5.05
2022-09-23T09:25:32.131Z,5.63
2022-09-23T09:28:01.395Z,6.07
2022-09-23T09:30:28.460Z,5.10
2022-09-23T09:33:04.204Z,5.40
2022-09-23T09:35:42.052Z,5.97
2022-09-23T09:38:08.659Z,4.80
2022-09-23T09:40:35.327Z,5.55
2022-09-23T09:43:05.703Z,5.65
2022-09-23T09:46:00.248Z,5.65
2022-09-23T09:48:37.818Z,5.35
2022-09-23T09:51:22.084Z,4.70
2022-09-23T09:53:51.932Z,5.45
2022-09-23T09:56:26.462Z,5.30
2022-09-23T09:58:58.659Z,4.53
2022-09-23T10:01:26.937Z,4.25
2022-09-23T10:03:55.726Z,4.35
2022-09-23T10:06:30.463Z,4.88
2022-09-23T10:09:05.378Z,5.40
2022-09-23T10:14:14.001Z,4.72
2022-09-23T10:16:41.573Z,5.78
2022-09-23T10:19:13.586Z,5.43
2022-09-23T10:21:42.256Z,6.47
2022-09-23T10:24:20.039Z,4.50
2022-09-23T10:26:56.118Z,4.75
2022-09-23T10:29:31.916Z,5.80
2022-09-23T10:32:28.072Z,5.15
2022-09-23T10:34:57.188Z,6.00
2022-09-23T10:37:44.925Z,4.60
2022-09-23T10:40:51.125Z,4.78
2022-09-23T10:43:55.182Z,4.30
2022-09-23T10:46:47.526Z,4.80
2022-09-23T10:49:20.196Z,4.25
2022-09-23T10:52:16.186Z,4.50
2022-09-23T10:55:04.519Z,4.28
2022-09-23T10:57:53.292Z,4.40
2022-09-23T11:00:32.562Z,3.72
2022-09-23T11:03:16.797Z,3.72
2022-09-23T11:06:02.732Z,3.80
2022-09-23T11:08:59.778Z,3.83
2022-09-23T11:11:47.286Z,2.83
2022-09-23T11:14:32.103Z,2.70
2022-09-23T11:17:18.078Z,2.97
2022-09-23T11:19:55.965Z,2.92
2022-09-23T11:22:53.189Z,3.28
2022-09-23T11:25:41.092Z,3.28
2022-09-23T11:28:10.692Z,2.58
2022-09-23T11:31:17.176Z,2.67
2022-09-23T11:34:22.354Z,3.45
2022-09-23T11:36:58.987Z,3.70
2022-09-23T11:39:35.158Z,2.60
2022-09-23T11:42:03.330Z,3.33
2022-09-23T11:44:39.604Z,3.22
2022-09-23T11:47:10.072Z,3.13
2022-09-23T11:50:03.060Z,3.35
2022-09-23T11:52:37.824Z,2.67
2022-09-23T11:55:21.213Z,3.30
2022-09-23T11:57:53.596Z,3.00
2022-09-23T12:00:20.127Z,2.50
2022-09-23T12:03:09.628Z,2.63
2022-09-23T12:05:41.680Z,2.60
2022-09-23T12:08:29.078Z,3.08
2022-09-23T12:11:24.974Z,2.90
2022-09-23T12:14:10.455Z,3.13
2022-09-23T12:17:01.823Z,3.10
2022-09-23T12:19:55.558Z,2.95
2022-09-23T12:22:43.713Z,2.97
2022-09-23T12:25:16.088Z,3.70
2022-09-23T12:27:46.025Z,3.53
2022-09-23T12:30:18.104Z,3.28
2022-09-23T12:32:44.803Z,2.72
2022-09-23T12:35:24.361Z,3.00
2022-09-23T12:37:51.945Z,2.60
2022-09-23T12:40:30.229Z,2.80
2022-09-23T12:43:01.169Z,2.67
2022-09-23T12:45:34.718Z,2.88
2022-09-23T12:48:43.525Z,3.17
2022-09-23T12:51:19.200Z,3.25
2022-09-23T12:53:50.861Z,3.35
2022-09-23T12:56:21.565Z,2.95
2022-09-23T12:58:48.158Z,2.63
2022-09-23T13:01:14.708Z,2.60
2022-09-23T13:04:09.169Z,3.28
2022-09-23T13:07:04.449Z,2.80
2022-09-23T13:09:37.583Z,2.60
2022-09-23T13:12:08.607Z,2.75
2022-09-23T13:14:37.882Z,3.42
2022-09-23T13:17:04.768Z,2.83
2022-09-23T13:19:36.603Z,3.10
2022-09-23T13:22:11.094Z,3.28
2022-09-23T13:24:42.107Z,3.40
2022-09-23T13:27:16.295Z,3.10
2022-09-23T13:29:55.695Z,3.55
2022-09-23T13:32:28.370Z,3.88
2022-09-23T13:35:15.785Z,3.53
2022-09-23T13:37:47.576Z,2.58
2022-09-23T13:40:20.952Z,2.50
2022-09-23T13:42:56.902Z,3.65
2022-09-23T13:45:25.714Z,2.80
2022-09-23T13:47:59.124Z,2.75
2022-09-23T13:50:26.615Z,2.67
2022-09-23T13:53:00.885Z,3.20
2022-09-23T13:55:37.509Z,2.95
2022-09-23T13:58:24.381Z,2.28
2022-09-23T14:00:51.434Z,2.35
2022-09-23T14:03:37.108Z,2.78
2022-09-23T14:06:08.629Z,2.60
2022-09-23T14:08:35.773Z,2.58
2022-09-23T14:11:06.265Z,2.45
2022-09-23T14:13:41.438Z,2.65
2022-09-23T14:16:11.347Z,3.30
2022-09-23T14:18:40.855Z,3.42
2022-09-23T14:21:30.409Z,2.53
2022-09-23T14:23:57.025Z,2.95
2022-09-23T14:26:24.909Z,3.17
2022-09-23T14:28:52.281Z,2.22
2022-09-23T14:31:19.040Z,2.60
2022-09-23T14:33:46.845Z,2.55
2022-09-23T14:36:35.964Z,2.67
2022-09-23T14:39:08.441Z,2.97
2022-09-23T14:41:41.402Z,2.40
2022-09-23T14:44:18.333Z,2.95
2022-09-23T14:46:56.508Z,4.10
2022-09-23T14:49:24.407Z,3.25
2022-09-23T14:52:00.703Z,3.80
2022-09-23T14:54:33.763Z,3.85
2022-09-23T14:57:02.291Z,3.67
2022-09-23T14:59:34.674Z,4.10
2022-09-23T15:02:01.812Z,4.18
2022-09-23T15:04:32.288Z,4.32
2022-09-23T15:07:16.248Z,4.57
2022-09-23T15:09:44.738Z,4.47
2022-09-23T15:12:21.157Z,4.20
2022-09-23T15:14:54.211Z,5.00
2022-09-23T15:17:30.699Z,6.32
2022-09-23T15:20:03.702Z,4.88
2022-09-23T15:22:30.279Z,5.00
2022-09-23T15:25:16.451Z,4.85
2022-09-23T15:27:56.533Z,3.90
2022-09-23T15:30:23.229Z,3.92
2022-09-23T15:32:49.743Z,4.00
2022-09-23T15:35:19.680Z,4.38
2022-09-23T15:37:49.092Z,5.15
2022-09-23T15:40:30.497Z,3.95
2022-09-23T15:43:04.931Z,3.05
2022-09-23T15:45:36.393Z,3.58
2022-09-23T15:48:10.675Z,4.00
2022-09-23T15:50:38.106Z,4.82
2022-09-23T15:53:06.013Z,2.80
2022-09-23T15:55:33.802Z,3.22
2022-09-23T15:58:00.622Z,4.40
2022-09-23T16:00:27.318Z,3.15
2022-09-23T16:02:54.107Z,2.95
2022-09-23T16:05:30.732Z,3.35
2022-09-23T16:07:57.397Z,3.35
2022-09-23T16:10:24.035Z,3.42
2022-09-23T16:12:53.614Z,3.30
2022-09-23T16:15:21.810Z,3.22
2022-09-23T16:17:48.535Z,3.10
2022-09-23T16:20:18.494Z,3.03
2022-09-23T16:22:52.964Z,3.03
2022-09-23T16:25:20.351Z,5.00
2022-09-23T16:27:46.922Z,3.00
2022-09-23T16:30:13.446Z,3.60
2022-09-23T16:32:39.875Z,4.47
2022-09-23T16:35:08.530Z,4.38
2022-09-23T16:37:35.256Z,5.15
2022-09-23T16:40:03.814Z,4.25
2022-09-23T16:42:30.285Z,4.85
2022-09-23T16:44:56.755Z,4.15
2022-09-23T16:47:23.247Z,4.45
2022-09-23T16:49:49.674Z,3.83
2022-09-23T16:52:16.998Z,5.55
2022-09-23T16:54:43.803Z,4.70
2022-09-23T16:57:10.359Z,4.20
2022-09-23T16:59:55.568Z,4.50
2022-09-23T17:02:40.807Z,4.75
2022-09-23T17:07:34.102Z,5.63
2022-09-23T17:10:00.743Z,5.18
2022-09-23T17:12:32.299Z,4.82
2022-09-23T17:14:59.181Z,5.78
2022-09-23T17:17:25.806Z,5.82
2022-09-23T17:19:52.259Z,6.00
2022-09-23T17:22:18.790Z,6.78
2022-09-23T17:24:45.259Z,6.05
2022-09-23T17:27:11.795Z,6.57
2022-09-23T17:29:38.303Z,7.95
2022-09-23T17:32:04.975Z,7.80
2022-09-23T17:34:33.348Z,8.63
2022-09-23T17:37:00.443Z,8.25
2022-09-23T17:39:27.264Z,10.10
2022-09-23T17:41:56.039Z,11.02
2022-09-23T17:44:24.181Z,10.05
2022-09-23T17:46:51.104Z,10.02
2022-09-23T17:49:18.731Z,10.55
2022-09-23T17:51:45.176Z,11.43
2022-09-23T17:54:12.242Z,10.57
2022-09-23T17:56:38.706Z,10.80
2022-09-23T17:59:05.237Z,10.82
2022-09-23T18:01:31.938Z,11.23
2022-09-23T18:04:00.354Z,10.20
2022-09-23T18:06:31.401Z,9.00
2022-09-23T18:09:01.296Z,8.32
2022-09-23T18:11:29.978Z,8.57
2022-09-23T18:14:19.617Z,7.53
2022-09-23T18:16:48.717Z,7.85
2022-09-23T18:19:17.926Z,7.32
2022-09-23T18:21:50.743Z,7.68
2022-09-23T18:24:31.997Z,8.45
2022-09-23T18:27:00.103Z,7.47
2022-09-23T18:29:27.298Z,6.85
2022-09-23T18:31:54.015Z,6.22
2022-09-23T18:34:20.769Z,7.45
2022-09-23T18:36:47.476Z,7.20
2022-09-23T18:39:13.997Z,7.93
2022-09-23T18:41:41.206Z,7.43
2022-09-23T18:44:08.956Z,7.43
2022-09-23T18:46:35.625Z,6.47
2022-09-23T18:49:21.340Z,7.38
2022-09-23T18:51:49.497Z,7.10
2022-09-23T18:54:16.071Z,6.75
2022-09-23T18:56:44.588Z,7.47
2022-09-23T18:59:17.633Z,7.18
2022-09-23T19:01:45.762Z,7.15
2022-09-23T19:04:14.244Z,7.60
2022-09-23T19:06:41.108Z,6.43
2022-09-23T19:09:08.435Z,6.50
2022-09-23T19:11:38.393Z,6.13
2022-09-23T19:14:08.152Z,6.18
2022-09-23T19:16:36.657Z,6.07
2022-09-23T19:19:05.278Z,6.72
2022-09-23T19:21:32.953Z,6.38
2022-09-23T19:24:03.693Z,7.40
2022-09-23T19:26:41.251Z,8.48
2022-09-23T19:29:13.045Z,8.02
2022-09-23T19:31:43.481Z,8.15
2022-09-23T19:34:15.847Z,8.82
2022-09-23T19:36:44.410Z,8.68
2022-09-23T19:39:20.251Z,9.45
2022-09-23T19:41:47.325Z,10.77
2022-09-23T19:44:15.195Z,10.90
2022-09-23T19:46:45.077Z,10.00
2022-09-23T19:49:12.337Z,12.35
2022-09-23T19:51:39.320Z,12.88
2022-09-23T19:54:07.822Z,13.05
2022-09-23T19:56:35.905Z,14.75
2022-09-23T19:59:05.835Z,12.43
2022-09-23T20:01:32.889Z,13.57
2022-09-23T20:04:00.524Z,15.65
2022-09-23T20:06:35.252Z,14.50
2022-09-23T20:09:02.678Z,14.50
2022-09-23T20:11:29.964Z,15.23
2022-09-23T20:14:01.774Z,15.68
2022-09-23T20:16:33.711Z,16.45
2022-09-23T20:19:00.911Z,14.65
2022-09-23T20:21:29.431Z,15.00
2022-09-23T20:23:56.818Z,14.35
2022-09-23T20:26:41.909Z,14.75
2022-09-23T20:29:09.018Z,14.35
2022-09-23T20:31:35.978Z,15.25
2022-09-23T20:34:05.642Z,14.80
2022-09-23T20:36:33.317Z,14.60
2022-09-23T20:39:01.950Z,15.00
2022-09-23T20:41:30.275Z,14.27
2022-09-23T20:44:00.414Z,16.35
2022-09-23T20:46:28.551Z,14.85
2022-09-23T20:48:56.585Z,15.18
2022-09-23T20:51:24.727Z,15.38
2022-09-23T20:53:52.939Z,16.42
2022-09-23T20:56:21.160Z,15.52
2022-09-23T20:58:48.610Z,14.13
2022-09-23T21:01:15.749Z,14.57
2022-09-23T21:03:44.870Z,14.13
2022-09-23T21:06:13.945Z,13.30
2022-09-23T21:08:41.793Z,13.07
2022-09-23T21:11:11.168Z,13.43
2022-09-23T21:13:37.846Z,11.85
2022-09-23T21:16:06.915Z,11.95
2022-09-23T21:18:35.148Z,10.80
2022-09-23T21:21:02.243Z,10.48
2022-09-23T21:23:34.112Z,11.00
2022-09-23T21:26:23.187Z,10.02
2022-09-23T21:28:52.238Z,10.38
2022-09-23T21:31:27.584Z,11.65
2022-09-23T21:34:00.419Z,11.10
2022-09-23T21:36:42.755Z,11.45
2022-09-23T21:39:10.904Z,12.57
2022-09-23T21:41:38.355Z,11.43
2022-09-23T21:44:06.458Z,13.18
2022-09-23T21:46:33.901Z,11.38
2022-09-23T21:49:03.252Z,12.38
2022-09-23T21:51:40.288Z,11.80
2022-09-23T21:54:11.633Z,12.15
2022-09-23T21:56:38.224Z,13.25
2022-09-23T21:59:07.558Z,12.20
2022-09-23T22:01:36.975Z,12.63
2022-09-23T22:04:09.342Z,13.30
2022-09-23T22:06:38.346Z,11.57
2022-09-23T22:09:10.807Z,12.63
2022-09-23T22:11:57.854Z,12.90
2022-09-23T22:14:26.213Z,12.27
2022-09-23T22:16:57.582Z,12.35
2022-09-23T22:19:26.642Z,13.70
2022-09-23T22:21:55.808Z,14.02
2022-09-23T22:24:22.384Z,15.00
2022-09-23T22:26:48.921Z,13.77
2022-09-23T22:29:35.007Z,13.57
2022-09-23T22:32:21.781Z,14.50
2022-09-23T22:34:51.962Z,13.75
2022-09-23T22:37:25.983Z,13.75
2022-09-23T22:39:52.876Z,13.38
2022-09-23T22:42:22.381Z,12.20
2022-09-23T22:44:49.319Z,13.70
2022-09-23T22:47:17.575Z,12.32
2022-09-23T22:49:44.029Z,11.27
2022-09-23T22:52:11.288Z,9.73
2022-09-23T22:54:38.565Z,9.35
2022-09-23T22:57:06.603Z,9.18
2022-09-23T22:59:33.958Z,8.70
2022-09-23T23:02:02.492Z,8.93
2022-09-23T23:04:30.245Z,8.20
2022-09-23T23:06:58.631Z,8.55
2022-09-23T23:09:25.475Z,8.80
2022-09-23T23:11:51.989Z,8.35
2022-09-23T23:14:18.759Z,8.98
2022-09-23T23:16:46.173Z,7.50
2022-09-23T23:19:17.166Z,8.10
2022-09-23T23:21:44.894Z,9.20
2022-09-23T23:24:17.229Z,9.65
2022-09-23T23:26:43.959Z,9.43
2022-09-23T23:29:12.786Z,10.18
2022-09-23T23:31:39.946Z,9.43
2022-09-23T23:34:10.436Z,10.25
2022-09-23T23:36:36.980Z,10.65
2022-09-23T23:39:03.616Z,9.93
2022-09-23T23:41:30.151Z,9.77
2022-09-23T23:43:58.605Z,9.35
2022-09-23T23:46:27.588Z,9.50
2022-09-23T23:48:55.928Z,10.63
2022-09-23T23:51:23.004Z,11.18
2022-09-23T23:53:49.540Z,11.88
2022-09-23T23:56:18.511Z,12.15
2022-09-23T23:58:45.769Z,11.23
